createdAt,value
2019-05-02T00:00:42.192Z,76.83
2019-05-02T00:03:11.648Z,78.53
2019-05-02T00:05:41.048Z,79.60
2019-05-02T00:08:10.835Z,83.60
2019-05-02T00:10:41.619Z,82.50
2019-05-02T00:13:11.490Z,84.53
2019-05-02T00:15:41.094Z,86.57
2019-05-02T00:18:11.538Z,85.27
2019-05-02T00:20:41.552Z,86.00
2019-05-02T00:23:11.437Z,84.17
2019-05-02T00:25:41.314Z,80.77
2019-05-02T00:28:12.314Z,86.70
2019-05-02T00:30:41.661Z,87.20
2019-05-02T00:33:10.974Z,85.73
2019-05-02T00:35:40.812Z,90.27
2019-05-02T00:38:11.705Z,86.20
2019-05-02T00:40:40.991Z,91.53
2019-05-02T00:43:10.532Z,89.43
2019-05-02T00:45:40.337Z,87.27
2019-05-02T00:48:11.540Z,87.87
2019-05-02T00:50:45.427Z,84.10
2019-05-02T00:53:13.468Z,83.10
2019-05-02T00:55:43.178Z,90.50
2019-05-02T00:58:13.185Z,86.73
2019-05-02T01:00:44.313Z,84.47
2019-05-02T01:03:16.256Z,87.27
2019-05-02T01:05:45.546Z,87.90
2019-05-02T01:08:14.868Z,83.63
2019-05-02T01:10:44.550Z,89.00
2019-05-02T01:13:14.731Z,85.30
2019-05-02T01:15:45.970Z,84.03
2019-05-02T01:18:15.498Z,88.80
2019-05-02T01:20:45.188Z,90.20
2019-05-02T01:23:14.546Z,89.33
2019-05-02T01:25:47.355Z,94.07
2019-05-02T01:28:19.509Z,91.23
2019-05-02T01:30:50.551Z,83.23
2019-05-02T01:33:21.529Z,91.90
2019-05-02T01:35:54.934Z,87.83
2019-05-02T01:38:31.128Z,93.00
2019-05-02T01:40:56.999Z,89.30
2019-05-02T01:43:28.899Z,89.30
2019-05-02T01:45:59.398Z,93.63
2019-05-02T01:48:29.473Z,90.80
2019-05-02T01:50:58.785Z,93.20
2019-05-02T01:53:34.030Z,98.90
2019-05-02T01:55:59.574Z,96.63
2019-05-02T01:58:29.095Z,89.57
2019-05-02T02:00:58.968Z,94.17
2019-05-02T02:03:28.273Z,98.60
2019-05-02T02:05:57.671Z,106.03
2019-05-02T02:08:31.967Z,96.60
2019-05-02T02:10:58.336Z,111.03
2019-05-02T02:13:31.323Z,107.00
2019-05-02T02:16:00.115Z,108.37
2019-05-02T02:18:31.541Z,109.77
2019-05-02T02:21:02.588Z,112.20
2019-05-02T02:23:39.592Z,113.47
2019-05-02T02:26:12.024Z,107.37
2019-05-02T02:28:41.907Z,110.60
2019-05-02T02:31:11.330Z,101.67
2019-05-02T02:33:47.525Z,111.27
2019-05-02T02:36:11.893Z,109.03
2019-05-02T02:38:41.460Z,92.83
2019-05-02T02:41:13.059Z,107.17
2019-05-02T02:43:43.248Z,96.20
2019-05-02T02:46:14.271Z,96.70
2019-05-02T02:48:43.828Z,97.20
2019-05-02T02:51:22.244Z,99.77
2019-05-02T02:53:44.945Z,101.10
2019-05-02T02:56:14.260Z,101.23
2019-05-02T02:58:46.355Z,107.67
2019-05-02T03:01:27.788Z,105.50
2019-05-02T03:03:46.001Z,102.23
2019-05-02T03:06:15.419Z,107.80
2019-05-02T03:08:48.870Z,106.83
2019-05-02T03:11:23.438Z,108.63
2019-05-02T03:14:09.592Z,99.40
2019-05-02T03:16:46.201Z,103.23
2019-05-02T03:19:14.837Z,97.93
2019-05-02T03:21:44.051Z,99.40
2019-05-02T03:24:13.682Z,97.80
2019-05-02T03:26:48.781Z,107.47
2019-05-02T03:29:14.882Z,101.20
2019-05-02T03:31:44.529Z,101.57
2019-05-02T03:34:13.931Z,108.43
2019-05-02T03:36:43.810Z,105.00
2019-05-02T03:39:17.177Z,100.77
2019-05-02T03:41:44.279Z,105.00
2019-05-02T03:44:24.756Z,103.27
2019-05-02T03:46:45.084Z,107.77
2019-05-02T03:49:14.929Z,112.77
2019-05-02T03:51:44.527Z,102.17
2019-05-02T03:54:13.846Z,107.30
2019-05-02T03:56:44.771Z,106.57
2019-05-02T03:59:14.601Z,117.90
2019-05-02T04:01:44.146Z,117.70
2019-05-02T04:04:14.299Z,110.57
2019-05-02T04:06:44.683Z,107.43
2019-05-02T04:09:32.068Z,114.43
2019-05-02T04:12:00.432Z,114.67
2019-05-02T04:14:37.855Z,120.27
2019-05-02T04:17:01.388Z,114.83
2019-05-02T04:19:34.875Z,115.93
2019-05-02T04:22:08.425Z,121.27
2019-05-02T04:24:35.112Z,114.30
2019-05-02T04:27:04.811Z,117.43
2019-05-02T04:29:34.219Z,114.93
2019-05-02T04:32:11.494Z,118.00
2019-05-02T04:34:34.698Z,111.63
2019-05-02T04:37:04.319Z,115.43
2019-05-02T04:39:33.805Z,114.17
2019-05-02T04:42:12.985Z,114.57
2019-05-02T04:44:40.920Z,109.80
2019-05-02T04:47:11.110Z,110.53
2019-05-02T04:49:39.163Z,106.97
2019-05-02T04:52:11.638Z,109.80
2019-05-02T04:54:39.040Z,107.73
2019-05-02T04:57:08.834Z,116.90
2019-05-02T04:59:39.438Z,105.80
2019-05-02T05:02:09.532Z,104.40
2019-05-02T05:04:46.095Z,112.80
2019-05-02T05:07:09.829Z,104.83
2019-05-02T05:09:40.343Z,116.43
2019-05-02T05:12:09.787Z,114.57
2019-05-02T05:14:43.027Z,109.67
2019-05-02T05:17:10.096Z,99.10
2019-05-02T05:19:39.390Z,110.87
2019-05-02T05:22:11.745Z,107.87
2019-05-02T05:24:42.459Z,106.73
2019-05-02T05:27:13.378Z,104.47
2019-05-02T05:29:45.900Z,107.50
2019-05-02T05:32:14.039Z,98.43
2019-05-02T05:34:43.355Z,109.40
2019-05-02T05:37:13.527Z,106.80
2019-05-02T05:39:47.571Z,126.20
2019-05-02T05:42:13.917Z,161.50
2019-05-02T05:44:43.208Z,145.13
2019-05-02T05:47:19.730Z,162.93
2019-05-02T05:49:47.714Z,112.40
2019-05-02T05:52:18.117Z,140.60
2019-05-02T05:54:47.500Z,116.33
2019-05-02T05:57:20.967Z,135.17
2019-05-02T05:59:48.384Z,120.07
2019-05-02T06:02:18.528Z,110.53
2019-05-02T06:04:50.265Z,105.53
2019-05-02T06:07:20.140Z,140.90
2019-05-02T06:09:49.549Z,142.23
2019-05-02T06:12:18.903Z,124.13
2019-05-02T06:14:48.452Z,102.43
2019-05-02T06:17:17.810Z,106.80
2019-05-02T06:19:48.292Z,105.83
2019-05-02T06:22:24.666Z,108.93
2019-05-02T06:24:50.857Z,100.40
2019-05-02T06:27:20.771Z,111.17
2019-05-02T06:29:56.170Z,107.53
2019-05-02T06:32:22.509Z,102.93
2019-05-02T06:34:51.846Z,104.37
2019-05-02T06:37:21.450Z,107.73
2019-05-02T06:39:50.817Z,105.80
2019-05-02T06:42:20.144Z,111.83
2019-05-02T06:44:49.476Z,104.83
2019-05-02T06:47:19.052Z,102.37
2019-05-02T06:49:48.391Z,104.40
2019-05-02T06:52:17.770Z,102.27
2019-05-02T06:54:47.098Z,94.13
2019-05-02T06:57:19.128Z,104.60
2019-05-02T06:59:49.968Z,105.70
2019-05-02T07:02:18.951Z,99.70
2019-05-02T07:04:48.280Z,104.07
2019-05-02T07:07:17.653Z,100.13
2019-05-02T07:09:46.989Z,89.40
2019-05-02T07:12:17.018Z,96.63
2019-05-02T07:14:46.356Z,96.03
2019-05-02T07:17:36.465Z,89.93
2019-05-02T07:20:08.352Z,97.30
2019-05-02T07:22:40.450Z,89.40
2019-05-02T07:25:10.576Z,92.67
2019-05-02T07:27:39.957Z,80.57
2019-05-02T07:30:11.412Z,82.37
2019-05-02T07:32:40.752Z,72.67
2019-05-02T07:35:11.011Z,78.27
2019-05-02T07:37:44.091Z,67.23
2019-05-02T07:40:16.721Z,62.93
2019-05-02T07:42:43.225Z,71.80
2019-05-02T07:45:13.583Z,69.13
2019-05-02T07:47:42.886Z,67.63
2019-05-02T07:50:13.568Z,74.27
2019-05-02T07:52:42.952Z,65.50
2019-05-02T07:55:12.626Z,64.67
2019-05-02T07:57:41.980Z,64.60
2019-05-02T08:00:14.249Z,60.60
2019-05-02T08:02:43.840Z,57.77
2019-05-02T08:05:20.671Z,60.07
2019-05-02T08:07:46.123Z,61.83
2019-05-02T08:10:22.076Z,61.53
2019-05-02T08:12:49.071Z,66.10
2019-05-02T08:15:18.851Z,65.63
2019-05-02T08:17:53.197Z,59.20
2019-05-02T08:20:21.240Z,58.20
2019-05-02T08:22:50.833Z,60.10
2019-05-02T08:25:20.885Z,58.73
2019-05-02T08:28:01.006Z,60.27
2019-05-02T08:30:35.287Z,59.83
2019-05-02T08:33:03.051Z,59.00
2019-05-02T08:35:32.340Z,57.57
2019-05-02T08:38:01.672Z,56.30
2019-05-02T08:40:30.993Z,57.70
2019-05-02T08:43:03.690Z,54.07
2019-05-02T08:45:33.119Z,57.00
2019-05-02T08:48:05.203Z,56.60
2019-05-02T08:50:33.538Z,61.97
2019-05-02T08:53:03.082Z,54.60
2019-05-02T08:55:32.840Z,60.90
2019-05-02T08:58:06.632Z,57.20
2019-05-02T09:00:37.698Z,58.80
2019-05-02T09:03:04.960Z,58.00
2019-05-02T09:05:36.956Z,53.03
2019-05-02T09:08:09.326Z,57.07
2019-05-02T09:10:37.085Z,58.10
2019-05-02T09:13:07.539Z,54.67
2019-05-02T09:15:40.324Z,56.67
2019-05-02T09:18:08.006Z,60.53
2019-05-02T09:20:37.494Z,60.83
2019-05-02T09:23:06.893Z,54.13
2019-05-02T09:25:36.260Z,60.70
2019-05-02T09:28:05.663Z,61.63
2019-05-02T09:30:34.957Z,63.20
2019-05-02T09:33:06.461Z,57.83
2019-05-02T09:35:35.449Z,53.00
2019-05-02T09:38:04.842Z,50.97
2019-05-02T09:40:34.130Z,47.93
2019-05-02T09:43:04.766Z,49.13
2019-05-02T09:45:37.398Z,51.30
2019-05-02T09:48:08.165Z,48.77
2019-05-02T09:50:38.457Z,53.27
2019-05-02T09:53:13.139Z,53.60
2019-05-02T09:55:42.010Z,56.37
2019-05-02T09:58:10.345Z,55.03
2019-05-02T10:00:58.874Z,54.90
2019-05-02T10:03:28.620Z,53.43
2019-05-02T10:05:58.391Z,51.97
2019-05-02T10:08:27.848Z,61.20
2019-05-02T10:10:57.889Z,55.47
2019-05-02T10:13:27.204Z,59.63
2019-05-02T10:15:56.936Z,57.57
2019-05-02T10:18:30.237Z,56.53
2019-05-02T10:20:57.943Z,53.63
2019-05-02T10:23:27.404Z,53.93
2019-05-02T10:25:56.829Z,54.83
2019-05-02T10:28:26.173Z,49.67
2019-05-02T10:30:56.873Z,56.57
2019-05-02T10:33:27.993Z,52.10
2019-05-02T10:35:57.489Z,49.10
2019-05-02T10:38:26.808Z,50.17
2019-05-02T10:41:01.534Z,47.63
2019-05-02T10:43:27.373Z,48.97
2019-05-02T10:45:58.343Z,47.20
2019-05-02T10:48:28.813Z,49.57
2019-05-02T10:51:18.494Z,53.23
2019-05-02T10:53:52.715Z,49.33
2019-05-02T10:56:18.900Z,48.70
2019-05-02T10:58:48.206Z,49.97
2019-05-02T11:01:19.401Z,50.77
2019-05-02T11:03:51.696Z,53.27
2019-05-02T11:06:22.322Z,49.73
2019-05-02T11:08:52.611Z,49.80
2019-05-02T11:11:23.000Z,49.93
2019-05-02T11:14:09.147Z,48.07
2019-05-02T11:16:42.206Z,47.83
2019-05-02T11:19:13.202Z,45.50
2019-05-02T11:21:55.501Z,47.57
2019-05-02T11:24:14.414Z,45.47
2019-05-02T11:26:44.059Z,50.87
2019-05-02T11:29:13.341Z,47.60
2019-05-02T11:31:43.033Z,47.17
2019-05-02T11:34:12.960Z,49.10
2019-05-02T11:36:42.280Z,46.70
2019-05-02T11:39:19.825Z,49.13
2019-05-02T11:41:43.462Z,50.20
2019-05-02T11:44:13.075Z,47.03
2019-05-02T11:46:46.730Z,44.90
2019-05-02T11:49:13.668Z,44.20
2019-05-02T11:51:47.035Z,43.67
2019-05-02T11:54:14.164Z,43.07
2019-05-02T11:56:48.848Z,42.90
2019-05-02T11:59:15.100Z,45.60
2019-05-02T12:01:56.782Z,45.37
2019-05-02T12:04:17.357Z,41.40
2019-05-02T12:06:49.929Z,45.17
2019-05-02T12:09:18.753Z,43.80
2019-05-02T12:11:52.701Z,45.47
2019-05-02T12:14:19.253Z,42.57
2019-05-02T12:16:48.582Z,43.60
2019-05-02T12:19:17.879Z,37.80
2019-05-02T12:21:57.338Z,38.10
2019-05-02T12:24:26.744Z,37.43
2019-05-02T12:26:56.396Z,33.80
2019-05-02T12:29:25.874Z,37.13
2019-05-02T12:31:56.523Z,36.80
2019-05-02T12:34:26.131Z,37.43
2019-05-02T12:36:55.446Z,40.93
2019-05-02T12:39:24.830Z,35.50
2019-05-02T12:41:54.607Z,35.73
2019-05-02T12:44:24.418Z,31.13
2019-05-02T12:46:53.815Z,35.77
2019-05-02T12:49:27.679Z,31.90
2019-05-02T12:51:54.191Z,36.27
2019-05-02T12:54:23.526Z,36.70
2019-05-02T12:56:53.025Z,34.60
2019-05-02T12:59:22.711Z,35.43
2019-05-02T13:01:52.077Z,29.67
2019-05-02T13:04:22.983Z,26.77
2019-05-02T13:06:53.109Z,22.97
2019-05-02T13:09:23.393Z,22.63
2019-05-02T13:11:54.817Z,26.93
2019-05-02T13:14:26.146Z,24.10
2019-05-02T13:17:01.382Z,22.97
2019-05-02T13:19:39.751Z,23.13
2019-05-02T13:22:16.008Z,24.30
2019-05-02T13:24:54.030Z,24.20
2019-05-02T13:27:18.464Z,22.63
2019-05-02T13:29:49.432Z,21.77
2019-05-02T13:32:21.792Z,21.60
2019-05-02T13:35:02.318Z,23.27
2019-05-02T13:37:32.120Z,22.33
2019-05-02T13:40:03.432Z,24.37
2019-05-02T13:42:33.691Z,22.20
2019-05-02T13:45:12.690Z,24.63
2019-05-02T13:47:42.662Z,24.03
2019-05-02T13:50:12.984Z,21.67
2019-05-02T13:52:45.162Z,24.80
2019-05-02T13:55:16.387Z,23.13
2019-05-02T13:57:47.006Z,23.43
2019-05-02T14:00:24.535Z,22.83
2019-05-02T14:02:54.076Z,21.97
2019-05-02T14:05:23.754Z,21.87
2019-05-02T14:08:12.215Z,20.40
2019-05-02T14:10:43.605Z,21.23
2019-05-02T14:13:12.984Z,19.73
2019-05-02T14:15:42.660Z,21.63
2019-05-02T14:18:12.501Z,19.77
2019-05-02T14:20:42.812Z,18.13
2019-05-02T14:23:12.529Z,17.87
2019-05-02T14:25:42.579Z,16.40
2019-05-02T14:28:12.973Z,16.40
2019-05-02T14:30:46.052Z,18.53
2019-05-02T14:33:18.214Z,20.87
2019-05-02T14:35:47.625Z,21.87
2019-05-02T14:38:17.114Z,20.43
2019-05-02T14:40:54.735Z,20.87
2019-05-02T14:43:44.552Z,22.07
2019-05-02T14:46:12.907Z,22.50
2019-05-02T14:48:45.607Z,21.17
2019-05-02T14:51:16.551Z,21.07
2019-05-02T14:53:46.720Z,22.67
2019-05-02T14:56:37.585Z,21.23
2019-05-02T14:59:09.114Z,29.20
2019-05-02T15:01:37.649Z,26.20
2019-05-02T15:04:08.413Z,25.47
2019-05-02T15:06:38.297Z,23.97
2019-05-02T15:09:11.933Z,29.67
2019-05-02T15:12:03.026Z,26.43
2019-05-02T15:14:34.785Z,22.10
2019-05-02T15:17:05.570Z,24.23
2019-05-02T15:19:35.074Z,22.43
2019-05-02T15:22:04.698Z,24.37
2019-05-02T15:24:37.534Z,23.83
2019-05-02T15:27:12.269Z,24.43
2019-05-02T15:29:36.477Z,27.07
2019-05-02T15:32:25.273Z,26.93
2019-05-02T15:35:07.101Z,22.90
2019-05-02T15:37:36.642Z,34.57
2019-05-02T15:42:38.865Z,25.10
2019-05-02T15:45:08.905Z,26.10
2019-05-02T15:47:41.596Z,30.53
2019-05-02T15:50:09.394Z,22.07
2019-05-02T15:52:42.034Z,23.03
2019-05-02T15:55:11.798Z,29.30
2019-05-02T15:57:43.583Z,36.57
2019-05-02T16:00:21.719Z,31.27
2019-05-02T16:02:45.604Z,30.50
2019-05-02T16:05:15.392Z,31.63
2019-05-02T16:07:46.571Z,31.50
2019-05-02T16:10:16.490Z,50.90
2019-05-02T16:12:47.612Z,36.87
2019-05-02T16:15:21.514Z,44.67
2019-05-02T16:17:49.583Z,29.10
2019-05-02T16:20:24.090Z,30.93
2019-05-02T16:22:53.429Z,34.63
2019-05-02T16:25:24.391Z,45.20
2019-05-02T16:27:57.392Z,47.17
2019-05-02T16:30:26.045Z,45.57
2019-05-02T16:32:59.737Z,48.83
2019-05-02T16:35:33.519Z,51.93
2019-05-02T16:38:03.263Z,51.87
2019-05-02T16:40:34.913Z,63.57
2019-05-02T16:43:04.207Z,66.00
2019-05-02T16:45:34.094Z,68.50
2019-05-02T16:48:03.552Z,67.90
2019-05-02T16:50:36.799Z,81.03
2019-05-02T16:53:04.202Z,60.33
2019-05-02T16:55:33.612Z,52.57
2019-05-02T16:58:07.029Z,57.90
2019-05-02T17:00:37.159Z,43.00
2019-05-02T17:03:05.348Z,79.53
2019-05-02T17:05:39.386Z,96.77
2019-05-02T17:08:20.047Z,73.83
2019-05-02T17:10:53.738Z,55.97
2019-05-02T17:13:21.653Z,44.40
2019-05-02T17:15:52.281Z,49.50
2019-05-02T17:18:22.830Z,54.17
2019-05-02T17:20:56.648Z,58.83
2019-05-02T17:23:23.443Z,45.03
2019-05-02T17:25:52.784Z,41.87
2019-05-02T17:28:22.377Z,116.03
2019-05-02T17:30:52.485Z,40.73
2019-05-02T17:33:22.291Z,38.97
2019-05-02T17:35:54.233Z,46.57
2019-05-02T17:38:27.696Z,37.23
2019-05-02T17:40:59.075Z,35.23
2019-05-02T17:43:25.548Z,31.83
2019-05-02T17:45:56.459Z,36.40
2019-05-02T17:48:26.147Z,31.40
2019-05-02T17:51:13.595Z,28.07
2019-05-02T17:53:49.592Z,30.20
2019-05-02T17:56:20.469Z,34.67
2019-05-02T17:58:53.284Z,35.37
2019-05-02T18:01:18.078Z,30.57
2019-05-02T18:03:47.378Z,27.80
2019-05-02T18:06:17.371Z,28.27
2019-05-02T18:08:51.666Z,25.03
2019-05-02T18:11:18.335Z,28.13
2019-05-02T18:13:48.150Z,29.67
2019-05-02T18:16:17.482Z,30.43
2019-05-02T18:18:46.928Z,29.20
2019-05-02T18:21:17.726Z,29.60
2019-05-02T18:23:47.621Z,29.97
2019-05-02T18:26:16.922Z,26.80
2019-05-02T18:28:49.254Z,55.70
2019-05-02T18:31:17.390Z,94.73
2019-05-02T18:33:46.723Z,124.67
2019-05-02T18:36:17.403Z,110.17
2019-05-02T18:38:47.159Z,70.27
2019-05-02T18:41:16.482Z,38.87
2019-05-02T18:43:45.839Z,39.90
2019-05-02T18:46:15.154Z,41.77
2019-05-02T18:48:47.662Z,37.57
2019-05-02T18:51:17.584Z,33.97
2019-05-02T18:53:47.013Z,45.37
2019-05-02T18:56:16.421Z,38.67
2019-05-02T18:58:45.785Z,71.43
2019-05-02T19:01:17.836Z,45.47
2019-05-02T19:03:46.993Z,65.50
2019-05-02T19:06:17.432Z,64.67
2019-05-02T19:08:50.298Z,66.50
2019-05-02T19:11:19.555Z,62.93
2019-05-02T19:13:48.862Z,37.93
2019-05-02T19:16:19.258Z,45.13
2019-05-02T19:18:54.300Z,48.13
2019-05-02T19:21:22.007Z,39.23
2019-05-02T19:23:52.906Z,36.10
2019-05-02T19:26:22.333Z,40.23
2019-05-02T19:28:56.038Z,45.67
2019-05-02T19:31:26.540Z,30.57
2019-05-02T19:33:55.870Z,31.23
2019-05-02T19:36:27.714Z,32.10
2019-05-02T19:38:57.421Z,29.67
2019-05-02T19:41:27.415Z,33.73
2019-05-02T19:43:56.834Z,33.70
2019-05-02T19:46:34.675Z,35.60
2019-05-02T19:48:57.379Z,32.53
2019-05-02T19:51:28.159Z,32.27
2019-05-02T19:53:59.361Z,27.90
2019-05-02T19:56:33.408Z,28.97
2019-05-02T19:58:59.785Z,28.97
2019-05-02T20:01:29.230Z,29.67
2019-05-02T20:04:02.265Z,27.97
2019-05-02T20:06:30.001Z,29.97
2019-05-02T20:09:04.734Z,27.90
2019-05-02T20:11:32.933Z,30.97
2019-05-02T20:14:09.034Z,28.40
2019-05-02T20:16:36.613Z,29.73
2019-05-02T20:19:06.538Z,28.93
2019-05-02T20:21:40.371Z,30.50
2019-05-02T20:24:17.396Z,36.33
2019-05-02T20:26:41.762Z,37.83
2019-05-02T20:29:11.649Z,36.20
2019-05-02T20:31:40.947Z,36.60
2019-05-02T20:34:11.798Z,38.23
2019-05-02T20:36:42.566Z,53.77
2019-05-02T20:39:12.537Z,38.43
2019-05-02T20:41:42.085Z,39.13
2019-05-02T20:44:12.187Z,37.67
2019-05-02T20:46:42.147Z,38.63
2019-05-02T20:49:12.842Z,38.17
2019-05-02T20:51:42.543Z,33.37
2019-05-02T20:54:12.526Z,48.63
2019-05-02T20:56:42.687Z,39.03
2019-05-02T20:59:12.754Z,38.50
2019-05-02T21:01:42.921Z,38.97
2019-05-02T21:04:12.542Z,41.13
2019-05-02T21:06:55.306Z,39.93
2019-05-02T21:09:42.135Z,46.50
2019-05-02T21:12:12.597Z,42.30
2019-05-02T21:14:42.145Z,45.87
2019-05-02T21:17:12.822Z,69.50
2019-05-02T21:19:42.309Z,55.00
2019-05-02T21:22:17.526Z,76.50
2019-05-02T21:24:46.992Z,46.03
2019-05-02T21:27:16.290Z,33.30
2019-05-02T21:29:45.675Z,33.30
2019-05-02T21:32:14.994Z,27.47
2019-05-02T21:34:44.466Z,23.77
2019-05-02T21:37:14.166Z,21.87
2019-05-02T21:39:43.516Z,20.77
2019-05-02T21:42:12.958Z,21.87
2019-05-02T21:44:42.352Z,22.27
2019-05-02T21:47:11.712Z,24.87
2019-05-02T21:49:45.229Z,30.33
2019-05-02T21:52:19.054Z,35.73
2019-05-02T21:54:52.095Z,41.77
2019-05-02T21:57:22.723Z,35.67
2019-05-02T21:59:52.733Z,35.70
2019-05-02T22:02:22.599Z,32.97
2019-05-02T22:04:52.914Z,30.87
2019-05-02T22:07:22.293Z,32.27
2019-05-02T22:09:52.404Z,31.20
2019-05-02T22:12:22.520Z,25.57
2019-05-02T22:14:52.879Z,22.73
2019-05-02T22:17:22.503Z,21.70
2019-05-02T22:19:52.425Z,21.80
2019-05-02T22:22:23.853Z,19.80
2019-05-02T22:24:53.150Z,15.53
2019-05-02T22:27:22.557Z,16.87
2019-05-02T22:29:54.483Z,14.63
2019-05-02T22:32:23.005Z,14.67
2019-05-02T22:34:54.439Z,13.53
2019-05-02T22:37:24.734Z,13.90
2019-05-02T22:39:55.655Z,13.40
2019-05-02T22:42:25.002Z,16.60
2019-05-02T22:44:54.361Z,14.90
2019-05-02T22:47:23.962Z,17.37
2019-05-02T22:49:53.339Z,15.30
2019-05-02T22:52:22.836Z,14.97
2019-05-02T22:54:52.421Z,15.37
2019-05-02T22:57:22.673Z,13.27
2019-05-02T22:59:52.097Z,15.13
2019-05-02T23:02:22.279Z,13.13
2019-05-02T23:04:52.606Z,13.37
2019-05-02T23:07:23.097Z,14.57
2019-05-02T23:09:52.821Z,15.00
2019-05-02T23:12:25.046Z,12.60
2019-05-02T23:14:53.777Z,14.63
2019-05-02T23:17:23.380Z,15.47
2019-05-02T23:19:52.892Z,12.77
2019-05-02T23:22:22.341Z,13.50
2019-05-02T23:24:59.013Z,14.20
2019-05-02T23:27:31.757Z,12.40
2019-05-02T23:30:03.015Z,13.20
2019-05-02T23:32:32.304Z,10.93
2019-05-02T23:35:02.039Z,10.43
2019-05-02T23:37:32.643Z,16.00
2019-05-02T23:40:02.681Z,11.90
2019-05-02T23:42:32.293Z,12.60
2019-05-02T23:45:02.804Z,15.47
2019-05-02T23:47:33.049Z,11.20
2019-05-02T23:50:02.876Z,14.40
2019-05-02T23:52:32.981Z,10.83
2019-05-02T23:55:02.942Z,12.63
2019-05-02T23:57:32.846Z,11.90
